sensor_id;sensor_type;location;lat;lon;timestamp;temperature;humidity
14252;DHT22;7210;51.502;10.722;2023-05-14T00:01:34;7.80;99.90
14252;DHT22;7210;51.502;10.722;2023-05-14T00:04:01;7.80;99.90
14252;DHT22;7210;51.502;10.722;2023-05-14T00:06:29;7.90;99.90
14252;DHT22;7210;51.502;10.722;2023-05-14T00:08:58;7.80;99.90
14252;DHT22;7210;51.502;10.722;2023-05-14T00:11:25;7.70;99.90
14252;DHT22;7210;51.502;10.722;2023-05-14T00:13:52;7.60;99.90
14252;DHT22;7210;51.502;10.722;2023-05-14T00:16:29;7.60;99.90
14252;DHT22;7210;51.502;10.722;2023-05-14T00:18:57;7.50;99.90
14252;DHT22;7210;51.502;10.722;2023-05-14T00:21:24;7.40;99.90
14252;DHT22;7210;51.502;10.722;2023-05-14T00:23:51;7.30;99.90
14252;DHT22;7210;51.502;10.722;2023-05-14T00:26:18;7.30;99.90
14252;DHT22;7210;51.502;10.722;2023-05-14T00:28:46;7.30;99.90
14252;DHT22;7210;51.502;10.722;2023-05-14T00:31:16;7.30;99.90
14252;DHT22;7210;51.502;10.722;2023-05-14T00:33:44;7.20;99.90
14252;DHT22;7210;51.502;10.722;2023-05-14T00:36:12;7.20;99.90
14252;DHT22;7210;51.502;10.722;2023-05-14T00:38:39;7.20;99.90
14252;DHT22;7210;51.502;10.722;2023-05-14T00:41:10;7.10;99.90
14252;DHT22;7210;51.502;10.722;2023-05-14T00:43:37;7.20;99.90
14252;DHT22;7210;51.502;10.722;2023-05-14T00:46:05;7.20;99.90
14252;DHT22;7210;51.502;10.722;2023-05-14T00:48:32;7.20;99.90
14252;DHT22;7210;51.502;10.722;2023-05-14T00:51:01;7.20;99.90
14252;DHT22;7210;51.502;10.722;2023-05-14T00:53:40;7.20;99.90
14252;DHT22;7210;51.502;10.722;2023-05-14T00:56:10;7.20;99.90
14252;DHT22;7210;51.502;10.722;2023-05-14T00:58:38;7.20;99.90
14252;DHT22;7210;51.502;10.722;2023-05-14T01:01:10;7.30;99.90
14252;DHT22;7210;51.502;10.722;2023-05-14T01:03:39;7.30;99.90
14252;DHT22;7210;51.502;10.722;2023-05-14T01:06:16;7.40;99.90
14252;DHT22;7210;51.502;10.722;2023-05-14T01:08:58;7.40;99.90
14252;DHT22;7210;51.502;10.722;2023-05-14T01:11:32;7.30;99.90
14252;DHT22;7210;51.502;10.722;2023-05-14T01:14:12;7.30;99.90
14252;DHT22;7210;51.502;10.722;2023-05-14T01:16:58;7.30;99.90
14252;DHT22;7210;51.502;10.722;2023-05-14T01:19:34;7.30;99.90
14252;DHT22;7210;51.502;10.722;2023-05-14T01:22:06;7.20;99.90
14252;DHT22;7210;51.502;10.722;2023-05-14T01:24:34;7.10;99.90
14252;DHT22;7210;51.502;10.722;2023-05-14T01:27:08;7.10;99.90
14252;DHT22;7210;51.502;10.722;2023-05-14T01:29:43;7.20;99.90
14252;DHT22;7210;51.502;10.722;2023-05-14T01:32:16;7.20;99.90
14252;DHT22;7210;51.502;10.722;2023-05-14T01:34:48;7.20;99.90
14252;DHT22;7210;51.502;10.722;2023-05-14T01:37:19;7.20;99.90
14252;DHT22;7210;51.502;10.722;2023-05-14T01:39:48;7.10;99.90
14252;DHT22;7210;51.502;10.722;2023-05-14T01:42:17;7.10;99.90
14252;DHT22;7210;51.502;10.722;2023-05-14T01:44:45;7.00;99.90
14252;DHT22;7210;51.502;10.722;2023-05-14T01:47:12;7.10;99.90
14252;DHT22;7210;51.502;10.722;2023-05-14T01:49:40;7.10;99.90
14252;DHT22;7210;51.502;10.722;2023-05-14T01:52:07;7.10;99.90
14252;DHT22;7210;51.502;10.722;2023-05-14T01:54:35;7.10;99.90
14252;DHT22;7210;51.502;10.722;2023-05-14T01:57:03;7.00;99.90
14252;DHT22;7210;51.502;10.722;2023-05-14T01:59:30;7.00;99.90
14252;DHT22;7210;51.502;10.722;2023-05-14T02:01:57;6.90;99.90
14252;DHT22;7210;51.502;10.722;2023-05-14T02:04:25;6.90;99.90
14252;DHT22;7210;51.502;10.722;2023-05-14T02:06:52;6.90;99.90
14252;DHT22;7210;51.502;10.722;2023-05-14T02:09:19;6.90;99.90
14252;DHT22;7210;51.502;10.722;2023-05-14T02:11:48;6.80;99.90
14252;DHT22;7210;51.502;10.722;2023-05-14T02:14:15;6.90;99.90
14252;DHT22;7210;51.502;10.722;2023-05-14T02:16:42;6.90;99.90
14252;DHT22;7210;51.502;10.722;2023-05-14T02:19:09;6.90;99.90
14252;DHT22;7210;51.502;10.722;2023-05-14T02:21:36;6.90;99.90
14252;DHT22;7210;51.502;10.722;2023-05-14T02:24:03;7.00;99.90
14252;DHT22;7210;51.502;10.722;2023-05-14T02:26:31;7.00;99.90
14252;DHT22;7210;51.502;10.722;2023-05-14T02:28:59;7.10;99.90
14252;DHT22;7210;51.502;10.722;2023-05-14T02:31:26;7.10;99.90
14252;DHT22;7210;51.502;10.722;2023-05-14T02:33:54;7.20;99.90
14252;DHT22;7210;51.502;10.722;2023-05-14T02:36:21;7.30;99.90
14252;DHT22;7210;51.502;10.722;2023-05-14T02:38:48;7.40;99.90
14252;DHT22;7210;51.502;10.722;2023-05-14T02:41:15;7.40;99.90
14252;DHT22;7210;51.502;10.722;2023-05-14T02:43:43;7.40;99.90
14252;DHT22;7210;51.502;10.722;2023-05-14T02:46:12;7.50;99.90
14252;DHT22;7210;51.502;10.722;2023-05-14T02:48:39;7.50;99.90
14252;DHT22;7210;51.502;10.722;2023-05-14T02:51:06;7.60;99.90
14252;DHT22;7210;51.502;10.722;2023-05-14T02:53:34;7.70;99.90
14252;DHT22;7210;51.502;10.722;2023-05-14T02:56:01;7.70;99.90
14252;DHT22;7210;51.502;10.722;2023-05-14T02:58:28;7.70;99.90
14252;DHT22;7210;51.502;10.722;2023-05-14T03:00:55;7.80;99.90
14252;DHT22;7210;51.502;10.722;2023-05-14T03:03:30;7.80;99.90
14252;DHT22;7210;51.502;10.722;2023-05-14T03:05:57;7.80;99.90
14252;DHT22;7210;51.502;10.722;2023-05-14T03:08:24;7.80;99.90
14252;DHT22;7210;51.502;10.722;2023-05-14T03:10:51;7.90;99.90
14252;DHT22;7210;51.502;10.722;2023-05-14T03:13:22;7.90;99.90
14252;DHT22;7210;51.502;10.722;2023-05-14T03:15:49;7.90;99.90
14252;DHT22;7210;51.502;10.722;2023-05-14T03:18:19;7.90;99.90
14252;DHT22;7210;51.502;10.722;2023-05-14T03:20:48;8.00;99.90
14252;DHT22;7210;51.502;10.722;2023-05-14T03:23:28;8.00;99.90
14252;DHT22;7210;51.502;10.722;2023-05-14T03:25:56;8.10;99.90
14252;DHT22;7210;51.502;10.722;2023-05-14T03:28:23;8.20;99.90
14252;DHT22;7210;51.502;10.722;2023-05-14T03:30:51;8.30;99.90
14252;DHT22;7210;51.502;10.722;2023-05-14T03:33:18;8.20;99.90
14252;DHT22;7210;51.502;10.722;2023-05-14T03:35:46;8.20;99.90
14252;DHT22;7210;51.502;10.722;2023-05-14T03:38:14;8.20;99.90
14252;DHT22;7210;51.502;10.722;2023-05-14T03:40:42;8.20;99.90
14252;DHT22;7210;51.502;10.722;2023-05-14T03:43:09;8.20;99.90
14252;DHT22;7210;51.502;10.722;2023-05-14T03:45:46;8.20;99.90
14252;DHT22;7210;51.502;10.722;2023-05-14T03:48:17;8.30;99.90
14252;DHT22;7210;51.502;10.722;2023-05-14T03:50:44;8.30;99.90
14252;DHT22;7210;51.502;10.722;2023-05-14T03:53:13;8.30;99.90
14252;DHT22;7210;51.502;10.722;2023-05-14T03:55:40;8.40;99.90
14252;DHT22;7210;51.502;10.722;2023-05-14T03:58:10;8.40;99.90
14252;DHT22;7210;51.502;10.722;2023-05-14T04:00:39;8.50;99.90
14252;DHT22;7210;51.502;10.722;2023-05-14T04:03:07;8.50;99.90
14252;DHT22;7210;51.502;10.722;2023-05-14T04:05:40;8.50;99.90
14252;DHT22;7210;51.502;10.722;2023-05-14T04:08:07;8.60;99.90
14252;DHT22;7210;51.502;10.722;2023-05-14T04:10:36;8.60;99.90
14252;DHT22;7210;51.502;10.722;2023-05-14T04:13:03;8.60;99.90
14252;DHT22;7210;51.502;10.722;2023-05-14T04:15:33;8.70;99.90
14252;DHT22;7210;51.502;10.722;2023-05-14T04:18:03;8.80;99.90
14252;DHT22;7210;51.502;10.722;2023-05-14T04:20:31;8.90;99.90
14252;DHT22;7210;51.502;10.722;2023-05-14T04:22:58;8.90;99.90
14252;DHT22;7210;51.502;10.722;2023-05-14T04:25:28;8.90;99.90
14252;DHT22;7210;51.502;10.722;2023-05-14T04:27:56;9.00;99.90
14252;DHT22;7210;51.502;10.722;2023-05-14T04:30:24;9.10;99.90
14252;DHT22;7210;51.502;10.722;2023-05-14T04:32:51;9.10;99.90
14252;DHT22;7210;51.502;10.722;2023-05-14T04:35:19;9.20;99.90
14252;DHT22;7210;51.502;10.722;2023-05-14T04:37:46;9.20;99.90
14252;DHT22;7210;51.502;10.722;2023-05-14T04:40:16;9.20;99.90
14252;DHT22;7210;51.502;10.722;2023-05-14T04:42:43;9.30;99.90
14252;DHT22;7210;51.502;10.722;2023-05-14T04:45:12;9.30;99.90
14252;DHT22;7210;51.502;10.722;2023-05-14T04:47:40;9.30;99.90
14252;DHT22;7210;51.502;10.722;2023-05-14T04:50:08;9.40;99.90
14252;DHT22;7210;51.502;10.722;2023-05-14T04:52:36;9.50;99.90
14252;DHT22;7210;51.502;10.722;2023-05-14T04:55:05;9.50;99.90
14252;DHT22;7210;51.502;10.722;2023-05-14T04:57:33;9.60;99.90
14252;DHT22;7210;51.502;10.722;2023-05-14T05:00:00;9.60;99.90
14252;DHT22;7210;51.502;10.722;2023-05-14T05:02:31;9.70;99.90
14252;DHT22;7210;51.502;10.722;2023-05-14T05:04:59;9.70;99.90
14252;DHT22;7210;51.502;10.722;2023-05-14T05:07:26;9.80;99.90
14252;DHT22;7210;51.502;10.722;2023-05-14T05:09:58;9.90;99.90
14252;DHT22;7210;51.502;10.722;2023-05-14T05:12:25;10.00;99.90
14252;DHT22;7210;51.502;10.722;2023-05-14T05:14:54;10.10;99.90
14252;DHT22;7210;51.502;10.722;2023-05-14T05:17:22;10.20;99.90
14252;DHT22;7210;51.502;10.722;2023-05-14T05:19:51;10.20;99.90
14252;DHT22;7210;51.502;10.722;2023-05-14T05:22:18;10.30;99.90
14252;DHT22;7210;51.502;10.722;2023-05-14T05:24:45;10.50;99.90
14252;DHT22;7210;51.502;10.722;2023-05-14T05:27:12;10.50;99.90
14252;DHT22;7210;51.502;10.722;2023-05-14T05:29:46;10.50;99.90
14252;DHT22;7210;51.502;10.722;2023-05-14T05:32:13;10.50;99.90
14252;DHT22;7210;51.502;10.722;2023-05-14T05:34:40;10.60;99.90
14252;DHT22;7210;51.502;10.722;2023-05-14T05:37:09;10.70;99.90
14252;DHT22;7210;51.502;10.722;2023-05-14T05:39:38;10.80;99.90
14252;DHT22;7210;51.502;10.722;2023-05-14T05:42:06;10.90;99.90
14252;DHT22;7210;51.502;10.722;2023-05-14T05:44:33;11.00;99.90
14252;DHT22;7210;51.502;10.722;2023-05-14T05:47:01;11.10;99.90
14252;DHT22;7210;51.502;10.722;2023-05-14T05:49:28;11.20;99.90
14252;DHT22;7210;51.502;10.722;2023-05-14T05:51:55;11.20;99.90
14252;DHT22;7210;51.502;10.722;2023-05-14T05:54:30;11.30;99.90
14252;DHT22;7210;51.502;10.722;2023-05-14T05:56:58;11.40;99.90
14252;DHT22;7210;51.502;10.722;2023-05-14T05:59:25;11.50;99.90
14252;DHT22;7210;51.502;10.722;2023-05-14T06:01:53;11.60;99.90
14252;DHT22;7210;51.502;10.722;2023-05-14T06:04:20;11.70;99.90
14252;DHT22;7210;51.502;10.722;2023-05-14T06:06:47;11.70;99.90
14252;DHT22;7210;51.502;10.722;2023-05-14T06:09:14;11.70;99.90
14252;DHT22;7210;51.502;10.722;2023-05-14T06:11:43;11.80;99.90
14252;DHT22;7210;51.502;10.722;2023-05-14T06:14:16;11.80;99.90
14252;DHT22;7210;51.502;10.722;2023-05-14T06:16:43;11.70;99.90
14252;DHT22;7210;51.502;10.722;2023-05-14T06:19:11;11.80;99.90
14252;DHT22;7210;51.502;10.722;2023-05-14T06:21:40;11.90;99.90
14252;DHT22;7210;51.502;10.722;2023-05-14T06:24:10;11.90;99.90
14252;DHT22;7210;51.502;10.722;2023-05-14T06:26:37;12.10;99.90
14252;DHT22;7210;51.502;10.722;2023-05-14T06:29:06;12.10;99.90
14252;DHT22;7210;51.502;10.722;2023-05-14T06:31:34;12.30;99.90
14252;DHT22;7210;51.502;10.722;2023-05-14T06:34:10;12.50;99.90
14252;DHT22;7210;51.502;10.722;2023-05-14T06:36:37;12.40;99.90
14252;DHT22;7210;51.502;10.722;2023-05-14T06:39:04;12.50;99.90
14252;DHT22;7210;51.502;10.722;2023-05-14T06:41:32;12.50;99.90
14252;DHT22;7210;51.502;10.722;2023-05-14T06:44:11;12.50;99.90
14252;DHT22;7210;51.502;10.722;2023-05-14T06:46:39;12.60;1.00
14252;DHT22;7210;51.502;10.722;2023-05-14T06:49:10;12.80;1.00
14252;DHT22;7210;51.502;10.722;2023-05-14T06:51:37;12.90;1.00
14252;DHT22;7210;51.502;10.722;2023-05-14T06:54:05;13.00;1.00
14252;DHT22;7210;51.502;10.722;2023-05-14T06:56:32;13.00;1.00
14252;DHT22;7210;51.502;10.722;2023-05-14T06:59:00;13.20;1.00
14252;DHT22;7210;51.502;10.722;2023-05-14T07:01:29;13.30;1.00
14252;DHT22;7210;51.502;10.722;2023-05-14T07:03:56;13.50;1.00
14252;DHT22;7210;51.502;10.722;2023-05-14T07:06:28;13.70;1.00
14252;DHT22;7210;51.502;10.722;2023-05-14T07:08:55;13.80;1.00
14252;DHT22;7210;51.502;10.722;2023-05-14T07:11:22;13.90;1.00
14252;DHT22;7210;51.502;10.722;2023-05-14T07:13:49;14.00;1.00
14252;DHT22;7210;51.502;10.722;2023-05-14T07:16:16;14.00;1.00
14252;DHT22;7210;51.502;10.722;2023-05-14T07:18:45;14.10;1.00
14252;DHT22;7210;51.502;10.722;2023-05-14T07:21:12;14.20;1.00
14252;DHT22;7210;51.502;10.722;2023-05-14T07:23:40;14.30;1.00
14252;DHT22;7210;51.502;10.722;2023-05-14T07:26:07;14.30;1.00
14252;DHT22;7210;51.502;10.722;2023-05-14T07:28:34;14.40;1.00
14252;DHT22;7210;51.502;10.722;2023-05-14T07:31:02;14.60;1.00
14252;DHT22;7210;51.502;10.722;2023-05-14T07:33:40;14.70;1.00
14252;DHT22;7210;51.502;10.722;2023-05-14T07:36:08;15.00;1.00
14252;DHT22;7210;51.502;10.722;2023-05-14T07:38:36;15.00;1.00
14252;DHT22;7210;51.502;10.722;2023-05-14T07:41:04;15.20;1.00
14252;DHT22;7210;51.502;10.722;2023-05-14T07:43:31;15.30;1.00
14252;DHT22;7210;51.502;10.722;2023-05-14T07:45:58;15.40;1.00
14252;DHT22;7210;51.502;10.722;2023-05-14T07:48:28;15.50;1.00
14252;DHT22;7210;51.502;10.722;2023-05-14T07:50:55;15.60;1.00
14252;DHT22;7210;51.502;10.722;2023-05-14T07:53:29;15.80;1.00
14252;DHT22;7210;51.502;10.722;2023-05-14T07:55:57;15.80;1.00
14252;DHT22;7210;51.502;10.722;2023-05-14T07:58:27;16.00;1.00
14252;DHT22;7210;51.502;10.722;2023-05-14T08:00:54;16.00;1.00
14252;DHT22;7210;51.502;10.722;2023-05-14T08:03:22;16.00;1.00
14252;DHT22;7210;51.502;10.722;2023-05-14T08:05:49;16.20;1.00
14252;DHT22;7210;51.502;10.722;2023-05-14T08:08:22;16.20;1.00
14252;DHT22;7210;51.502;10.722;2023-05-14T08:10:59;16.20;1.00
14252;DHT22;7210;51.502;10.722;2023-05-14T08:13:26;16.30;1.00
14252;DHT22;7210;51.502;10.722;2023-05-14T08:15:58;16.30;1.00
14252;DHT22;7210;51.502;10.722;2023-05-14T08:18:25;16.50;1.00
14252;DHT22;7210;51.502;10.722;2023-05-14T08:20:58;16.70;1.00
14252;DHT22;7210;51.502;10.722;2023-05-14T08:23:26;16.90;1.00
14252;DHT22;7210;51.502;10.722;2023-05-14T08:25:53;17.10;1.00
14252;DHT22;7210;51.502;10.722;2023-05-14T08:28:21;17.20;1.00
14252;DHT22;7210;51.502;10.722;2023-05-14T08:30:48;17.40;1.00
14252;DHT22;7210;51.502;10.722;2023-05-14T08:33:16;17.40;1.00
14252;DHT22;7210;51.502;10.722;2023-05-14T08:35:43;17.40;1.00
14252;DHT22;7210;51.502;10.722;2023-05-14T08:38:10;17.50;1.00
14252;DHT22;7210;51.502;10.722;2023-05-14T08:40:38;17.70;1.00
14252;DHT22;7210;51.502;10.722;2023-05-14T08:43:10;17.70;1.00
14252;DHT22;7210;51.502;10.722;2023-05-14T08:45:41;17.60;1.00
14252;DHT22;7210;51.502;10.722;2023-05-14T08:48:12;17.50;1.00
14252;DHT22;7210;51.502;10.722;2023-05-14T08:50:43;17.50;1.00
14252;DHT22;7210;51.502;10.722;2023-05-14T08:53:16;17.50;1.00
14252;DHT22;7210;51.502;10.722;2023-05-14T08:55:44;17.70;1.00
14252;DHT22;7210;51.502;10.722;2023-05-14T08:58:14;17.90;1.00
14252;DHT22;7210;51.502;10.722;2023-05-14T09:00:43;18.20;1.00
14252;DHT22;7210;51.502;10.722;2023-05-14T09:03:11;18.50;1.00
14252;DHT22;7210;51.502;10.722;2023-05-14T09:05:47;18.80;1.00
14252;DHT22;7210;51.502;10.722;2023-05-14T09:08:22;19.10;1.00
14252;DHT22;7210;51.502;10.722;2023-05-14T09:10:49;19.10;1.00
14252;DHT22;7210;51.502;10.722;2023-05-14T09:13:16;19.20;1.00
14252;DHT22;7210;51.502;10.722;2023-05-14T09:15:45;19.10;1.00
14252;DHT22;7210;51.502;10.722;2023-05-14T09:18:13;19.10;1.00
14252;DHT22;7210;51.502;10.722;2023-05-14T09:20:41;19.10;1.00
14252;DHT22;7210;51.502;10.722;2023-05-14T09:23:08;19.30;1.00
14252;DHT22;7210;51.502;10.722;2023-05-14T09:25:35;19.40;1.00
14252;DHT22;7210;51.502;10.722;2023-05-14T09:28:05;19.40;1.00
14252;DHT22;7210;51.502;10.722;2023-05-14T09:30:34;19.60;1.00
14252;DHT22;7210;51.502;10.722;2023-05-14T09:33:03;19.70;1.00
14252;DHT22;7210;51.502;10.722;2023-05-14T09:35:32;20.00;1.00
14252;DHT22;7210;51.502;10.722;2023-05-14T09:37:59;20.20;1.00
14252;DHT22;7210;51.502;10.722;2023-05-14T09:40:28;20.40;1.00
14252;DHT22;7210;51.502;10.722;2023-05-14T09:42:55;20.50;1.00
14252;DHT22;7210;51.502;10.722;2023-05-14T09:45:22;20.50;1.00
14252;DHT22;7210;51.502;10.722;2023-05-14T09:47:49;20.50;1.00
14252;DHT22;7210;51.502;10.722;2023-05-14T09:50:19;20.50;1.00
14252;DHT22;7210;51.502;10.722;2023-05-14T09:52:46;20.30;1.00
14252;DHT22;7210;51.502;10.722;2023-05-14T09:55:14;20.10;1.00
14252;DHT22;7210;51.502;10.722;2023-05-14T09:57:52;20.00;1.00
14252;DHT22;7210;51.502;10.722;2023-05-14T10:00:22;20.10;1.00
14252;DHT22;7210;51.502;10.722;2023-05-14T10:02:50;20.20;1.00
14252;DHT22;7210;51.502;10.722;2023-05-14T10:05:22;20.40;1.00
14252;DHT22;7210;51.502;10.722;2023-05-14T10:07:53;20.50;1.00
14252;DHT22;7210;51.502;10.722;2023-05-14T10:10:26;20.60;1.00
14252;DHT22;7210;51.502;10.722;2023-05-14T10:12:57;20.80;1.00
14252;DHT22;7210;51.502;10.722;2023-05-14T10:15:32;21.00;1.00
14252;DHT22;7210;51.502;10.722;2023-05-14T10:18:07;21.30;1.00
14252;DHT22;7210;51.502;10.722;2023-05-14T10:20:39;21.50;1.00
14252;DHT22;7210;51.502;10.722;2023-05-14T10:23:06;21.80;1.00
14252;DHT22;7210;51.502;10.722;2023-05-14T10:25:34;22.00;1.00
14252;DHT22;7210;51.502;10.722;2023-05-14T10:28:02;22.10;1.00
14252;DHT22;7210;51.502;10.722;2023-05-14T10:30:31;21.90;1.00
14252;DHT22;7210;51.502;10.722;2023-05-14T10:33:06;21.90;1.00
14252;DHT22;7210;51.502;10.722;2023-05-14T10:36:00;21.80;1.00
14252;DHT22;7210;51.502;10.722;2023-05-14T10:38:32;21.70;1.00
14252;DHT22;7210;51.502;10.722;2023-05-14T10:41:01;21.60;1.00
14252;DHT22;7210;51.502;10.722;2023-05-14T10:43:34;21.40;1.00
14252;DHT22;7210;51.502;10.722;2023-05-14T10:46:04;21.10;1.00
14252;DHT22;7210;51.502;10.722;2023-05-14T10:48:33;21.00;1.00
14252;DHT22;7210;51.502;10.722;2023-05-14T10:51:08;20.70;1.00
14252;DHT22;7210;51.502;10.722;2023-05-14T10:53:37;20.40;1.00
14252;DHT22;7210;51.502;10.722;2023-05-14T10:56:06;20.20;1.00
14252;DHT22;7210;51.502;10.722;2023-05-14T10:58:42;20.10;1.00
14252;DHT22;7210;51.502;10.722;2023-05-14T11:01:11;20.10;1.00
14252;DHT22;7210;51.502;10.722;2023-05-14T11:03:40;20.30;1.00
14252;DHT22;7210;51.502;10.722;2023-05-14T11:06:11;20.30;1.00
14252;DHT22;7210;51.502;10.722;2023-05-14T11:08:39;20.60;1.00
14252;DHT22;7210;51.502;10.722;2023-05-14T11:11:08;20.70;1.00
14252;DHT22;7210;51.502;10.722;2023-05-14T11:13:36;20.90;1.00
14252;DHT22;7210;51.502;10.722;2023-05-14T11:16:04;21.10;1.00
14252;DHT22;7210;51.502;10.722;2023-05-14T11:18:34;21.40;1.00
14252;DHT22;7210;51.502;10.722;2023-05-14T11:21:03;21.30;1.00
14252;DHT22;7210;51.502;10.722;2023-05-14T11:23:32;21.50;1.00
14252;DHT22;7210;51.502;10.722;2023-05-14T11:25:59;21.50;1.00
14252;DHT22;7210;51.502;10.722;2023-05-14T11:28:26;21.60;1.00
14252;DHT22;7210;51.502;10.722;2023-05-14T11:30:54;21.60;1.00
14252;DHT22;7210;51.502;10.722;2023-05-14T11:33:22;21.70;1.00
14252;DHT22;7210;51.502;10.722;2023-05-14T11:35:49;21.70;1.00
14252;DHT22;7210;51.502;10.722;2023-05-14T11:38:17;21.70;1.00
14252;DHT22;7210;51.502;10.722;2023-05-14T11:40:53;21.70;1.00
14252;DHT22;7210;51.502;10.722;2023-05-14T11:43:21;21.80;1.00
14252;DHT22;7210;51.502;10.722;2023-05-14T11:45:50;21.90;1.00
14252;DHT22;7210;51.502;10.722;2023-05-14T11:48:18;22.40;1.00
14252;DHT22;7210;51.502;10.722;2023-05-14T11:50:46;22.70;1.00
14252;DHT22;7210;51.502;10.722;2023-05-14T11:53:16;23.00;1.00
14252;DHT22;7210;51.502;10.722;2023-05-14T11:55:46;23.10;1.00
14252;DHT22;7210;51.502;10.722;2023-05-14T11:58:16;22.50;1.00
14252;DHT22;7210;51.502;10.722;2023-05-14T12:00:44;22.10;1.00
14252;DHT22;7210;51.502;10.722;2023-05-14T12:03:12;21.70;1.00
14252;DHT22;7210;51.502;10.722;2023-05-14T12:05:39;21.90;1.00
14252;DHT22;7210;51.502;10.722;2023-05-14T12:08:19;22.20;1.00
14252;DHT22;7210;51.502;10.722;2023-05-14T12:10:46;22.30;1.00
14252;DHT22;7210;51.502;10.722;2023-05-14T12:13:15;22.40;1.00
14252;DHT22;7210;51.502;10.722;2023-05-14T12:15:44;22.50;1.00
14252;DHT22;7210;51.502;10.722;2023-05-14T12:18:12;22.80;1.00
14252;DHT22;7210;51.502;10.722;2023-05-14T12:20:45;22.80;1.00
14252;DHT22;7210;51.502;10.722;2023-05-14T12:23:13;22.70;1.00
14252;DHT22;7210;51.502;10.722;2023-05-14T12:25:49;22.40;1.00
14252;DHT22;7210;51.502;10.722;2023-05-14T12:28:18;22.20;1.00
14252;DHT22;7210;51.502;10.722;2023-05-14T12:30:46;22.10;1.00
14252;DHT22;7210;51.502;10.722;2023-05-14T12:33:13;21.90;1.00
14252;DHT22;7210;51.502;10.722;2023-05-14T12:35:41;21.70;1.00
14252;DHT22;7210;51.502;10.722;2023-05-14T12:38:16;21.70;1.00
14252;DHT22;7210;51.502;10.722;2023-05-14T12:40:43;21.70;1.00
14252;DHT22;7210;51.502;10.722;2023-05-14T12:43:18;21.50;1.00
14252;DHT22;7210;51.502;10.722;2023-05-14T12:45:45;21.50;1.00
14252;DHT22;7210;51.502;10.722;2023-05-14T12:48:13;21.50;1.00
14252;DHT22;7210;51.502;10.722;2023-05-14T12:50:40;21.50;1.00
14252;DHT22;7210;51.502;10.722;2023-05-14T12:53:07;21.50;1.00
14252;DHT22;7210;51.502;10.722;2023-05-14T12:55:36;21.30;1.00
14252;DHT22;7210;51.502;10.722;2023-05-14T12:58:03;21.30;1.00
14252;DHT22;7210;51.502;10.722;2023-05-14T13:00:32;21.50;1.00
14252;DHT22;7210;51.502;10.722;2023-05-14T13:02:59;21.50;1.00
14252;DHT22;7210;51.502;10.722;2023-05-14T13:05:28;21.50;1.00
14252;DHT22;7210;51.502;10.722;2023-05-14T13:07:58;21.50;1.00
14252;DHT22;7210;51.502;10.722;2023-05-14T13:10:41;21.40;1.00
14252;DHT22;7210;51.502;10.722;2023-05-14T13:13:14;21.20;1.00
14252;DHT22;7210;51.502;10.722;2023-05-14T13:15:45;21.10;1.00
14252;DHT22;7210;51.502;10.722;2023-05-14T13:18:16;20.90;1.00
14252;DHT22;7210;51.502;10.722;2023-05-14T13:20:46;20.90;1.00
14252;DHT22;7210;51.502;10.722;2023-05-14T13:23:13;20.90;1.00
14252;DHT22;7210;51.502;10.722;2023-05-14T13:25:41;21.10;1.00
14252;DHT22;7210;51.502;10.722;2023-05-14T13:28:10;21.10;1.00
14252;DHT22;7210;51.502;10.722;2023-05-14T13:30:37;21.10;1.00
14252;DHT22;7210;51.502;10.722;2023-05-14T13:33:06;21.20;1.00
14252;DHT22;7210;51.502;10.722;2023-05-14T13:35:40;21.30;1.00
14252;DHT22;7210;51.502;10.722;2023-05-14T13:38:07;21.30;1.00
14252;DHT22;7210;51.502;10.722;2023-05-14T13:40:34;21.10;1.00
14252;DHT22;7210;51.502;10.722;2023-05-14T13:43:01;21.30;1.00
14252;DHT22;7210;51.502;10.722;2023-05-14T13:45:28;21.30;1.00
14252;DHT22;7210;51.502;10.722;2023-05-14T13:47:56;21.30;1.00
14252;DHT22;7210;51.502;10.722;2023-05-14T13:50:24;21.40;1.00
14252;DHT22;7210;51.502;10.722;2023-05-14T13:52:52;21.70;1.00
14252;DHT22;7210;51.502;10.722;2023-05-14T13:55:22;21.90;1.00
14252;DHT22;7210;51.502;10.722;2023-05-14T13:57:50;22.00;1.00
14252;DHT22;7210;51.502;10.722;2023-05-14T14:00:20;22.10;1.00
14252;DHT22;7210;51.502;10.722;2023-05-14T14:02:49;22.10;1.00
14252;DHT22;7210;51.502;10.722;2023-05-14T14:05:23;22.20;1.00
14252;DHT22;7210;51.502;10.722;2023-05-14T14:07:53;22.30;1.00
14252;DHT22;7210;51.502;10.722;2023-05-14T14:10:22;22.20;1.00
14252;DHT22;7210;51.502;10.722;2023-05-14T14:12:50;22.20;1.00
14252;DHT22;7210;51.502;10.722;2023-05-14T14:15:19;21.90;1.00
14252;DHT22;7210;51.502;10.722;2023-05-14T14:17:47;22.00;1.00
14252;DHT22;7210;51.502;10.722;2023-05-14T14:20:16;22.00;1.00
14252;DHT22;7210;51.502;10.722;2023-05-14T14:22:47;21.90;1.00
14252;DHT22;7210;51.502;10.722;2023-05-14T14:25:15;21.80;1.00
14252;DHT22;7210;51.502;10.722;2023-05-14T14:27:42;21.90;1.00
14252;DHT22;7210;51.502;10.722;2023-05-14T14:30:11;21.70;1.00
14252;DHT22;7210;51.502;10.722;2023-05-14T14:32:42;21.70;1.00
14252;DHT22;7210;51.502;10.722;2023-05-14T14:35:11;21.70;1.00
14252;DHT22;7210;51.502;10.722;2023-05-14T14:37:42;21.70;1.00
14252;DHT22;7210;51.502;10.722;2023-05-14T14:40:16;21.70;1.00
14252;DHT22;7210;51.502;10.722;2023-05-14T14:42:43;21.70;1.00
14252;DHT22;7210;51.502;10.722;2023-05-14T14:45:12;21.80;1.00
14252;DHT22;7210;51.502;10.722;2023-05-14T14:47:43;22.00;1.00
14252;DHT22;7210;51.502;10.722;2023-05-14T14:50:11;22.00;1.00
14252;DHT22;7210;51.502;10.722;2023-05-14T14:52:39;22.10;1.00
14252;DHT22;7210;51.502;10.722;2023-05-14T14:55:08;22.20;1.00
14252;DHT22;7210;51.502;10.722;2023-05-14T14:57:38;22.20;1.00
14252;DHT22;7210;51.502;10.722;2023-05-14T15:00:07;22.30;1.00
14252;DHT22;7210;51.502;10.722;2023-05-14T15:02:38;22.10;1.00
14252;DHT22;7210;51.502;10.722;2023-05-14T15:05:08;21.90;1.00
14252;DHT22;7210;51.502;10.722;2023-05-14T15:07:35;22.20;1.00
14252;DHT22;7210;51.502;10.722;2023-05-14T15:10:03;22.80;1.00
14252;DHT22;7210;51.502;10.722;2023-05-14T15:12:31;23.30;1.00
14252;DHT22;7210;51.502;10.722;2023-05-14T15:14:59;23.50;1.00
14252;DHT22;7210;51.502;10.722;2023-05-14T15:17:26;23.50;1.00
14252;DHT22;7210;51.502;10.722;2023-05-14T15:19:54;23.50;1.00
14252;DHT22;7210;51.502;10.722;2023-05-14T15:22:21;23.20;1.00
14252;DHT22;7210;51.502;10.722;2023-05-14T15:24:48;23.00;1.00
14252;DHT22;7210;51.502;10.722;2023-05-14T15:27:15;22.70;1.00
14252;DHT22;7210;51.502;10.722;2023-05-14T15:29:42;22.70;1.00
14252;DHT22;7210;51.502;10.722;2023-05-14T15:32:11;22.70;1.00
14252;DHT22;7210;51.502;10.722;2023-05-14T15:34:38;22.90;1.00
14252;DHT22;7210;51.502;10.722;2023-05-14T15:37:05;22.90;1.00
14252;DHT22;7210;51.502;10.722;2023-05-14T15:39:32;23.30;1.00
14252;DHT22;7210;51.502;10.722;2023-05-14T15:42:00;23.70;1.00
14252;DHT22;7210;51.502;10.722;2023-05-14T15:44:27;23.90;1.00
14252;DHT22;7210;51.502;10.722;2023-05-14T15:46:54;24.30;1.00
14252;DHT22;7210;51.502;10.722;2023-05-14T15:49:24;24.30;1.00
14252;DHT22;7210;51.502;10.722;2023-05-14T15:51:51;24.10;1.00
14252;DHT22;7210;51.502;10.722;2023-05-14T15:54:18;24.10;1.00
14252;DHT22;7210;51.502;10.722;2023-05-14T15:56:46;23.80;1.00